Time;durP1;ratioP1;P1;durP2;ratioP2;P2;SDS_P1;SDS_P2;PMS_P1;PMS_P2;Temp;Humidity;BMP_temperature;BMP_pressure;BME280_temperature;BME280_humidity;BME280_pressure;Samples;Min_cycle;Max_cycle;Signal;HPM_P1;HPM_P2
2022/08/12 00:43:14;;;;;;;;;;;;;;;;;;1025655;28;1963;-47
2022/08/12 00:43:46;;;;;;;;;;;;;;;;;;1025120;28;1854;-51
2022/08/12 00:44:18;;;;;;;;;;;;;;;;;;1025170;28;3417;-48
2022/08/12 00:44:48;;;;;;;;;;;;;;;;;;1024873;28;2295;-47
2022/08/12 00:45:19;;;;;;;;;;;;;;;;;;1025286;28;1360;-48
2022/08/12 00:46:43;;;;;;;;;;;;;;;;;;1025549;28;1884;-48
2022/08/12 00:47:13;;;;;;;;;;;;;;;;;;1025244;28;3138;-50
2022/08/12 00:47:44;;;;;;;;;;;;;;;;;;1025063;28;1971;-45
2022/08/12 00:48:15;;;;;;;;;;;;;;;;;;1025793;28;1157;-49
2022/08/12 00:48:46;;;;;;;;;;;;;;;;;;1025754;28;1666;-49
2022/08/12 00:49:17;;;;;;;;;;;;;;;;;;1025686;28;2276;-48
2022/08/12 00:49:50;;;;;;;;;;;;;;;;;;1024389;28;2207;-47
2022/08/12 00:50:21;;;;;;;;;;;;;;;;;;1025858;28;1701;-50
2022/08/12 00:50:53;;;;;;;;;;;;;;;;;;1025395;28;2317;-47
2022/08/12 00:52:05;;;;;;;;;;;;;;;;;;1025808;28;1846;-45
2022/08/12 00:52:14;;;;;;;;;;;;;;;;;;1024836;28;2337;-50
2022/08/12 00:52:45;;;;;;;;;;;;;;;;;;1023810;28;4479;-47
2022/08/12 00:53:17;;;;;;;;;;;;;;;;;;1026010;28;3785;-47
2022/08/12 00:53:47;;;;;;;;;;;;;;;;;;1024486;28;1392;-51
2022/08/12 00:54:17;;;;;;;;;;;;;;;;;;1024325;28;2471;-48
2022/08/12 00:54:52;;;;;;;;;;;;;;;;;;1024725;28;1861;-48
2022/08/12 00:55:22;;;;;;;;;;;;;;;;;;1025339;28;3131;-47
2022/08/12 00:55:54;;;;;;;;;;;;;;;;;;1024872;28;3186;-48
2022/08/12 00:56:25;;;;;;;;;;;;;;;;;;1024128;28;3106;-46
2022/08/12 00:56:57;;;;;;;;;;;;;;;;;;1024317;28;2968;-50
2022/08/12 00:57:34;;;;;;;;;;;;;;;;;;1025474;28;3232;-46
2022/08/12 00:58:04;;;;;;;;;;;;;;;;;;1025214;28;3356;-47
2022/08/12 00:58:35;;;;;;;;;;;;;;;;;;1025525;28;2453;-48
2022/08/12 00:59:06;;;;;;;;;;;;;;;;;;1025942;28;1783;-45
2022/08/12 00:59:42;;;;;;;;;;;;;;;;;;1025058;28;2054;-45
2022/08/12 01:00:18;;;;;;;;;;;;;;;;;;1025572;28;1729;-45
2022/08/12 01:00:48;;;;;;;;;;;;;;;;;;1026082;28;1697;-48
2022/08/12 01:01:19;;;;;;;;;;;;;;;;;;1025619;28;1535;-46
2022/08/12 01:01:51;;;;;;;;;;;;;;;;;;1025546;28;1671;-47
2022/08/12 01:02:24;;;;;;;;;;;;;;;;;;1024809;28;2149;-50
2022/08/12 01:02:57;;;;;;;;;;;;;;;;;;1025552;28;2228;-46
2022/08/12 01:11:27;;;;;;;;;;;;;;;;;;1025630;28;1389;-49
2022/08/12 01:11:50;;;;;;;;;;;;;;;;;;1025569;28;1600;-46
2022/08/12 01:12:20;;;;;;;;;;;;;;;;;;1025807;28;2637;-46
2022/08/12 01:12:51;;;;;;;;;;;;;;;;;;1025006;28;2059;-46
2022/08/12 01:13:22;;;;;;;;;;;;;;;;;;1024712;28;2398;-47
2022/08/12 01:13:52;;;;;;;;;;;;;;;;;;1025677;28;1684;-49
2022/08/12 01:14:23;;;;;;;;;;;;;;;;;;1024400;28;1816;-48
2022/08/12 01:14:54;;;;;;;;;;;;;;;;;;1024393;28;3091;-47
2022/08/12 01:15:26;;;;;;;;;;;;;;;;;;1025581;28;1844;-44
2022/08/12 01:15:57;;;;;;;;;;;;;;;;;;1025468;28;1635;-47
2022/08/12 01:16:28;;;;;;;;;;;;;;;;;;1025032;28;1830;-46
2022/08/12 01:16:58;;;;;;;;;;;;;;;;;;1025734;28;1616;-47
2022/08/12 01:17:29;;;;;;;;;;;;;;;;;;1024798;28;3204;-49
2022/08/12 01:17:59;;;;;;;;;;;;;;;;;;1025272;28;3458;-47
2022/08/12 01:18:34;;;;;;;;;;;;;;;;;;1025664;28;1678;-46
2022/08/12 01:19:04;;;;;;;;;;;;;;;;;;1025439;28;1584;-48
2022/08/12 01:19:34;;;;;;;;;;;;;;;;;;1025312;28;2232;-48
2022/08/12 01:20:05;;;;;;;;;;;;;;;;;;1025259;28;1849;-46
2022/08/12 01:20:38;;;;;;;;;;;;;;;;;;1026225;28;1810;-47
2022/08/12 01:21:12;;;;;;;;;;;;;;;;;;1025994;28;1985;-47
2022/08/12 01:21:53;;;;;;;;;;;;;;;;;;1024467;28;3293;-51
2022/08/12 01:22:39;;;;;;;;;;;;;;;;;;1021661;28;1711;-46
2022/08/12 01:23:16;;;;;;;;;;;;;;;;;;1020467;28;1993;-48
2022/08/12 01:24:05;;;;;;;;;;;;;;;;;;1020744;28;3171;-47
2022/08/12 01:24:42;;;;;;;;;;;;;;;;;;1025334;28;1687;-50
2022/08/12 01:25:17;;;;;;;;;;;;;;;;;;1024381;28;1739;-48
2022/08/12 01:25:48;;;;;;;;;;;;;;;;;;1025781;28;1719;-46
2022/08/12 01:26:22;;;;;;;;;;;;;;;;;;1025963;28;1872;-47
2022/08/12 01:26:53;;;;;;;;;;;;;;;;;;1025636;28;1737;-47
2022/08/12 01:27:26;;;;;;;;;;;;;;;;;;1024573;28;1333;-46
2022/08/12 01:27:57;;;;;;;;;;;;;;;;;;1024903;28;3139;-47
2022/08/12 01:28:34;;;;;;;;;;;;;;;;;;1025153;28;1664;-49
2022/08/12 01:29:05;;;;;;;;;;;;;;;;;;1025799;28;1805;-46
2022/08/12 01:29:39;;;;;;;;;;;;;;;;;;1024978;28;2362;-47
2022/08/12 01:30:10;;;;;;;;;;;;;;;;;;1025304;28;2611;-46
2022/08/12 01:30:42;;;;;;;;;;;;;;;;;;1026130;28;1834;-47
2022/08/12 01:31:14;;;;;;;;;;;;;;;;;;1026319;28;1689;-46
2022/08/12 01:31:46;;;;;;;;;;;;;;;;;;1026395;28;1689;-48
2022/08/12 01:32:17;;;;;;;;;;;;;;;;;;1026176;28;1942;-46
2022/08/12 01:32:48;;;;;;;;;;;;;;;;;;1026294;28;1720;-44
2022/08/12 01:33:20;;;;;;;;;;;;;;;;;;1025196;28;3050;-47
2022/08/12 01:34:10;;;;;;;;;;;;;;;;;;1027078;28;3232;-46
2022/08/12 01:34:53;;;;;;;;;;;;;;;;;;1030046;28;1583;-49
2022/08/12 01:35:24;;;;;;;;;;;;;;;;;;1029293;28;3158;-47
2022/08/12 01:35:59;;;;;;;;;;;;;;;;;;1029841;28;1913;-47
2022/08/12 01:36:38;;;;;;;;;;;;;;;;;;1030552;28;2122;-48
2022/08/12 01:37:09;;;;;;;;;;;;;;;;;;1030597;28;1695;-46
2022/08/12 01:37:59;;;;;;;;;;;;;;;;;;1030106;28;2051;-48
2022/08/12 01:38:31;;;;;;;;;;;;;;;;;;1030227;28;1777;-48
2022/08/12 01:39:02;;;;;;;;;;;;;;;;;;1029953;28;1792;-46
2022/08/12 01:39:37;;;;;;;;;;;;;;;;;;1030389;28;1980;-49
2022/08/12 01:40:09;;;;;;;;;;;;;;;;;;1030013;28;1433;-47
2022/08/12 01:40:43;;;;;;;;;;;;;;;;;;1030148;28;1679;-47
2022/08/12 01:41:15;;;;;;;;;;;;;;;;;;1029413;28;1774;-49
2022/08/12 01:41:52;;;;;;;;;;;;;;;;;;1029970;28;2856;-46
2022/08/12 01:42:24;;;;;;;;;;;;;;;;;;1030615;28;1755;-45
2022/08/12 01:42:58;;;;;;;;;;;;;;;;;;1030242;28;1726;-50
2022/08/12 01:43:29;;;;;;;;;;;;;;;;;;1029335;28;2282;-48
2022/08/12 01:44:00;;;;;;;;;;;;;;;;;;1030245;28;1684;-48
2022/08/12 01:44:31;;;;;;;;;;;;;;;;;;1030549;28;1734;-50
2022/08/12 01:45:01;;;;;;;;;;;;;;;;;;1029885;28;1673;-48
2022/08/12 01:45:33;;;;;;;;;;;;;;;;;;1029848;28;1487;-47
2022/08/12 01:46:06;;;;;;;;;;;;;;;;;;1029738;28;2435;-47
2022/08/12 01:46:37;;;;;;;;;;;;;;;;;;1029325;28;1970;-47
2022/08/12 01:47:18;;;;;;;;;;;;;;;;;;1030305;28;1605;-49
2022/08/12 01:48:00;;;;;;;;;;;;;;;;;;1029849;28;1702;-47
2022/08/12 01:48:38;;;;;;;;;;;;;;;;;;1028793;28;2294;-48
2022/08/12 01:49:11;;;;;;;;;;;;;;;;;;1029721;28;1815;-46
2022/08/12 01:50:00;;;;;;;;;;;;;;;;;;1029193;28;2024;-46
2022/08/12 01:50:38;;;;;;;;;;;;;;;;;;1029220;28;1320;-48
2022/08/12 01:51:25;;;;;;;;;;;;;;;;;;1029366;28;1814;-47
2022/08/12 01:52:03;;;;;;;;;;;;;;;;;;1028585;28;3270;-47
2022/08/12 01:52:39;;;;;;;;;;;;;;;;;;1029629;28;3453;-46
2022/08/12 01:53:11;;;;;;;;;;;;;;;;;;1029082;28;1813;-47
2022/08/12 01:53:46;;;;;;;;;;;;;;;;;;1029047;28;2387;-47
2022/08/12 01:54:17;;;;;;;;;;;;;;;;;;1029396;28;1827;-47
2022/08/12 01:54:48;;;;;;;;;;;;;;;;;;1029665;28;1633;-50
2022/08/12 01:55:21;;;;;;;;;;;;;;;;;;1028924;28;2091;-45
2022/08/12 01:55:51;;;;;;;;;;;;;;;;;;1029153;28;3282;-48
2022/08/12 01:56:23;;;;;;;;;;;;;;;;;;1028585;28;3240;-48
2022/08/12 01:57:12;;;;;;;;;;;;;;;;;;1029816;28;1675;-46
2022/08/12 01:57:46;;;;;;;;;;;;;;;;;;1028757;28;2430;-47
2022/08/12 01:59:44;;;;;;;;;;;;;;;;;;1029062;28;2469;-47
2022/08/12 01:59:49;;;;;;;;;;;;;;;;;;1029325;28;1910;-46
2022/08/12 02:00:19;;;;;;;;;;;;;;;;;;1026880;28;1756;-47
2022/08/12 02:00:57;;;;;;;;;;;;;;;;;;1028887;28;1576;-46
2022/08/12 02:01:33;;;;;;;;;;;;;;;;;;1029906;28;1543;-47
2022/08/12 02:02:06;;;;;;;;;;;;;;;;;;1029745;28;1974;-46
2022/08/12 02:02:43;;;;;;;;;;;;;;;;;;1030037;28;1668;-47
2022/08/12 02:11:55;;;;;;;;;;;;;;;;;;1029155;28;2076;-48
2022/08/12 02:12:28;;;;;;;;;;;;;;;;;;1033023;28;2330;-47
2022/08/12 02:13:06;;;;;;;;;;;;;;;;;;1032183;28;3007;-47
2022/08/12 02:13:54;;;;;;;;;;;;;;;;;;1032835;28;3326;-50
2022/08/12 02:14:43;;;;;;;;;;;;;;;;;;1029771;28;1506;-47
2022/08/12 02:15:21;;;;;;;;;;;;;;;;;;1027587;28;3029;-47
2022/08/12 02:16:21;;;;;;;;;;;;;;;;;;1029650;28;3296;-47
2022/08/12 02:17:04;;;;;;;;;;;;;;;;;;1017437;29;3422;-48
2022/08/12 02:17:42;;;;;;;;;;;;;;;;;;1029354;28;1611;-47
2022/08/12 02:18:15;;;;;;;;;;;;;;;;;;1028606;28;3606;-47
2022/08/12 02:19:01;;;;;;;;;;;;;;;;;;1031510;28;1615;-49
2022/08/12 02:19:52;;;;;;;;;;;;;;;;;;1029493;28;1713;-46
2022/08/12 02:20:37;;;;;;;;;;;;;;;;;;1028709;28;3002;-48
2022/08/12 02:21:19;;;;;;;;;;;;;;;;;;1029816;28;4257;-47
2022/08/12 02:21:49;;;;;;;;;;;;;;;;;;1030571;28;1597;-49
2022/08/12 02:22:19;;;;;;;;;;;;;;;;;;1030580;28;2213;-48
2022/08/12 02:22:50;;;;;;;;;;;;;;;;;;1030156;28;1621;-45
2022/08/12 02:23:25;;;;;;;;;;;;;;;;;;1028474;28;4586;-47
2022/08/12 02:23:57;;;;;;;;;;;;;;;;;;1030669;28;1426;-50
2022/08/12 02:24:30;;;;;;;;;;;;;;;;;;1029602;28;1841;-48
2022/08/12 02:25:20;;;;;;;;;;;;;;;;;;1030347;28;1934;-46
2022/08/12 02:25:53;;;;;;;;;;;;;;;;;;1025916;28;3417;-46
2022/08/12 02:26:25;;;;;;;;;;;;;;;;;;1029829;28;2049;-50
2022/08/12 02:26:56;;;;;;;;;;;;;;;;;;1030037;28;1716;-50
2022/08/12 02:27:27;;;;;;;;;;;;;;;;;;1030575;28;3732;-48
2022/08/12 02:27:59;;;;;;;;;;;;;;;;;;1029941;28;1704;-47
2022/08/12 02:28:37;;;;;;;;;;;;;;;;;;1029999;28;1929;-47
2022/08/12 02:29:07;;;;;;;;;;;;;;;;;;1030487;28;1673;-47
2022/08/12 02:29:41;;;;;;;;;;;;;;;;;;1029875;28;1751;-49
2022/08/12 02:30:13;;;;;;;;;;;;;;;;;;1028969;28;2596;-48
2022/08/12 02:30:43;;;;;;;;;;;;;;;;;;1029865;28;3266;-48
2022/08/12 02:31:14;;;;;;;;;;;;;;;;;;1030521;28;1648;-48
2022/08/12 02:31:45;;;;;;;;;;;;;;;;;;1030091;28;1795;-48
2022/08/12 02:32:15;;;;;;;;;;;;;;;;;;1030035;28;1416;-45
2022/08/12 02:32:46;;;;;;;;;;;;;;;;;;1030381;28;1716;-47
2022/08/12 02:33:18;;;;;;;;;;;;;;;;;;1029750;28;2491;-47
2022/08/12 02:34:01;;;;;;;;;;;;;;;;;;1029752;28;2060;-47
2022/08/12 02:34:38;;;;;;;;;;;;;;;;;;1021435;28;1716;-49
2022/08/12 02:35:13;;;;;;;;;;;;;;;;;;1022452;28;1745;-46
2022/08/12 02:35:44;;;;;;;;;;;;;;;;;;1021513;28;1687;-46
2022/08/12 02:36:15;;;;;;;;;;;;;;;;;;1022117;28;3185;-49
2022/08/12 02:36:46;;;;;;;;;;;;;;;;;;1025869;28;1835;-48
2022/08/12 02:37:17;;;;;;;;;;;;;;;;;;1026739;28;1524;-47
2022/08/12 02:37:48;;;;;;;;;;;;;;;;;;1026230;28;1821;-45
2022/08/12 02:38:20;;;;;;;;;;;;;;;;;;1021909;29;1988;-47
2022/08/12 02:38:51;;;;;;;;;;;;;;;;;;1022207;29;2146;-46
2022/08/12 02:39:23;;;;;;;;;;;;;;;;;;1022427;29;1631;-52
2022/08/12 02:39:56;;;;;;;;;;;;;;;;;;1021804;28;2369;-49
2022/08/12 02:40:28;;;;;;;;;;;;;;;;;;1025339;28;2472;-49
2022/08/12 02:41:01;;;;;;;;;;;;;;;;;;1025574;28;1726;-48
2022/08/12 02:41:33;;;;;;;;;;;;;;;;;;1026488;28;1672;-47
2022/08/12 02:42:05;;;;;;;;;;;;;;;;;;1025797;28;1464;-49
2022/08/12 02:42:37;;;;;;;;;;;;;;;;;;1026413;28;1856;-47
2022/08/12 02:43:11;;;;;;;;;;;;;;;;;;1025408;28;3170;-47
2022/08/12 02:43:47;;;;;;;;;;;;;;;;;;1026555;28;2153;-48
2022/08/12 02:44:18;;;;;;;;;;;;;;;;;;1026459;28;1575;-47
2022/08/12 02:44:50;;;;;;;;;;;;;;;;;;1025009;28;2715;-50
2022/08/12 02:45:32;;;;;;;;;;;;;;;;;;1026133;28;2405;-46
2022/08/12 02:46:04;;;;;;;;;;;;;;;;;;1025568;28;2260;-48
2022/08/12 02:46:35;;;;;;;;;;;;;;;;;;1026071;28;1666;-47
2022/08/12 02:47:06;;;;;;;;;;;;;;;;;;1022189;28;1502;-47
2022/08/12 02:47:39;;;;;;;;;;;;;;;;;;1021640;28;1725;-46
2022/08/12 02:48:14;;;;;;;;;;;;;;;;;;1021971;28;1928;-45
2022/08/12 02:48:54;;;;;;;;;;;;;;;;;;1022712;28;4676;-47
2022/08/12 02:49:28;;;;;;;;;;;;;;;;;;1021794;28;1664;-45
2022/08/12 02:50:00;;;;;;;;;;;;;;;;;;1021770;28;2467;-45
2022/08/12 02:50:32;;;;;;;;;;;;;;;;;;1021560;28;2191;-47
2022/08/12 02:51:04;;;;;;;;;;;;;;;;;;1022114;28;2899;-45
2022/08/12 02:51:40;;;;;;;;;;;;;;;;;;1026783;28;1652;-46
2022/08/12 02:52:11;;;;;;;;;;;;;;;;;;1026497;28;1715;-47
2022/08/12 02:52:42;;;;;;;;;;;;;;;;;;1022407;28;1417;-48
2022/08/12 02:53:13;;;;;;;;;;;;;;;;;;1021682;28;3256;-48
2022/08/12 02:53:44;;;;;;;;;;;;;;;;;;1022076;28;1810;-47
2022/08/12 02:54:14;;;;;;;;;;;;;;;;;;1022141;28;1899;-46
2022/08/12 02:54:48;;;;;;;;;;;;;;;;;;1026200;28;1668;-47
2022/08/12 02:55:20;;;;;;;;;;;;;;;;;;1026204;28;1729;-47
2022/08/12 02:55:50;;;;;;;;;;;;;;;;;;1026482;28;1695;-48
2022/08/12 02:56:21;;;;;;;;;;;;;;;;;;1026097;28;1648;-47
2022/08/12 02:56:53;;;;;;;;;;;;;;;;;;1025677;28;1623;-48
2022/08/12 02:57:24;;;;;;;;;;;;;;;;;;1026066;28;2063;-45
2022/08/12 02:57:55;;;;;;;;;;;;;;;;;;1025528;28;1734;-49
2022/08/12 02:58:25;;;;;;;;;;;;;;;;;;1026049;28;1719;-46
2022/08/12 02:58:57;;;;;;;;;;;;;;;;;;1026439;28;2189;-45
2022/08/12 02:59:28;;;;;;;;;;;;;;;;;;1026130;28;1797;-45
2022/08/12 03:00:03;;;;;;;;;;;;;;;;;;1026365;28;1654;-46
2022/08/12 03:00:34;;;;;;;;;;;;;;;;;;1025141;28;1875;-47
2022/08/12 03:01:07;;;;;;;;;;;;;;;;;;1026309;28;2668;-48
2022/08/12 03:01:45;;;;;;;;;;;;;;;;;;1026062;28;3727;-46
2022/08/12 03:02:18;;;;;;;;;;;;;;;;;;1025919;28;2621;-47
2022/08/12 03:02:50;;;;;;;;;;;;;;;;;;1026207;28;2045;-48
2022/08/12 03:03:21;;;;;;;;;;;;;;;;;;1025745;28;2181;-47
2022/08/12 03:03:54;;;;;;;;;;;;;;;;;;1026920;28;1573;-49
2022/08/12 03:04:29;;;;;;;;;;;;;;;;;;1025766;28;1664;-47
2022/08/12 03:05:01;;;;;;;;;;;;;;;;;;1026264;28;1692;-47
2022/08/12 03:05:32;;;;;;;;;;;;;;;;;;1026150;28;2241;-47
2022/08/12 03:06:07;;;;;;;;;;;;;;;;;;1026490;28;2601;-48
2022/08/12 03:06:42;;;;;;;;;;;;;;;;;;1025664;28;4229;-49
2022/08/12 03:07:25;;;;;;;;;;;;;;;;;;1025994;28;1430;-45
2022/08/12 03:07:57;;;;;;;;;;;;;;;;;;1025239;28;1965;-49
2022/08/12 03:08:31;;;;;;;;;;;;;;;;;;1026226;28;1720;-48
2022/08/12 03:09:02;;;;;;;;;;;;;;;;;;1025716;28;2058;-47
2022/08/12 03:09:34;;;;;;;;;;;;;;;;;;1025510;28;2941;-45
2022/08/12 03:10:09;;;;;;;;;;;;;;;;;;1026319;28;1978;-45
2022/08/12 03:10:42;;;;;;;;;;;;;;;;;;1025686;28;2257;-50
2022/08/12 03:11:36;;;;;;;;;;;;;;;;;;1026475;28;1681;-48
2022/08/12 03:12:08;;;;;;;;;;;;;;;;;;1011724;29;3465;-47
2022/08/12 03:12:40;;;;;;;;;;;;;;;;;;1012593;29;2809;-48
2022/08/12 03:13:11;;;;;;;;;;;;;;;;;;1025112;28;1575;-47
2022/08/12 03:13:44;;;;;;;;;;;;;;;;;;1025819;28;1963;-50
2022/08/12 03:14:17;;;;;;;;;;;;;;;;;;1025200;28;2875;-44
2022/08/12 03:14:49;;;;;;;;;;;;;;;;;;1026896;28;1791;-45
2022/08/12 03:15:21;;;;;;;;;;;;;;;;;;1026623;28;1470;-46
2022/08/12 03:15:53;;;;;;;;;;;;;;;;;;1025839;28;1629;-46
2022/08/12 03:16:24;;;;;;;;;;;;;;;;;;1025569;28;1978;-45
2022/08/12 03:17:07;;;;;;;;;;;;;;;;;;1026237;28;1579;-47
2022/08/12 03:17:42;;;;;;;;;;;;;;;;;;1025510;28;1709;-47
2022/08/12 03:18:21;;;;;;;;;;;;;;;;;;1025160;28;2739;-45
2022/08/12 03:18:53;;;;;;;;;;;;;;;;;;1024714;28;2729;-45
2022/08/12 03:19:23;;;;;;;;;;;;;;;;;;1026213;28;1619;-46
2022/08/12 03:19:55;;;;;;;;;;;;;;;;;;1026024;28;1615;-49
2022/08/12 03:20:25;;;;;;;;;;;;;;;;;;1024780;28;1817;-47
2022/08/12 03:20:57;;;;;;;;;;;;;;;;;;1025559;28;1418;-47
2022/08/12 03:21:27;;;;;;;;;;;;;;;;;;1026132;28;1837;-46
2022/08/12 03:22:11;;;;;;;;;;;;;;;;;;1025963;28;1739;-51
2022/08/12 03:22:43;;;;;;;;;;;;;;;;;;1025744;28;3114;-48
2022/08/12 03:23:15;;;;;;;;;;;;;;;;;;1025116;28;2906;-50
2022/08/12 03:23:46;;;;;;;;;;;;;;;;;;1026274;28;1441;-48
2022/08/12 03:24:17;;;;;;;;;;;;;;;;;;1025574;28;1763;-48
2022/08/12 03:24:48;;;;;;;;;;;;;;;;;;1026377;28;1708;-50
2022/08/12 03:25:23;;;;;;;;;;;;;;;;;;1026714;28;2147;-46
2022/08/12 03:25:55;;;;;;;;;;;;;;;;;;1026377;28;1286;-47
2022/08/12 03:26:26;;;;;;;;;;;;;;;;;;1021933;28;1821;-49
2022/08/12 03:26:57;;;;;;;;;;;;;;;;;;1020678;28;3476;-46
2022/08/12 03:27:29;;;;;;;;;;;;;;;;;;1021687;28;1719;-47
2022/08/12 03:27:59;;;;;;;;;;;;;;;;;;1021798;28;2194;-48
2022/08/12 03:29:28;;;;;;;;;;;;;;;;;;1026473;28;1716;-46
2022/08/12 03:29:59;;;;;;;;;;;;;;;;;;1025725;28;1950;-47
2022/08/12 03:30:31;;;;;;;;;;;;;;;;;;1026283;28;2181;-48
2022/08/12 03:31:03;;;;;;;;;;;;;;;;;;1025936;28;2147;-50
2022/08/12 03:31:33;;;;;;;;;;;;;;;;;;1026058;28;2130;-46
2022/08/12 03:32:04;;;;;;;;;;;;;;;;;;1025492;28;1679;-45
2022/08/12 03:32:37;;;;;;;;;;;;;;;;;;1025964;28;1651;-48
2022/08/12 03:33:10;;;;;;;;;;;;;;;;;;1023245;28;1700;-47
2022/08/12 03:33:43;;;;;;;;;;;;;;;;;;1020486;29;1702;-44
2022/08/12 03:34:28;;;;;;;;;;;;;;;;;;1023817;28;1750;-44
2022/08/12 03:34:59;;;;;;;;;;;;;;;;;;1028688;28;1810;-46
2022/08/12 03:35:31;;;;;;;;;;;;;;;;;;1029591;28;2037;-48
2022/08/12 03:36:03;;;;;;;;;;;;;;;;;;1029381;28;3252;-46
2022/08/12 03:36:34;;;;;;;;;;;;;;;;;;1029134;28;3366;-49
2022/08/12 03:37:06;;;;;;;;;;;;;;;;;;1030174;28;1699;-48
2022/08/12 03:37:38;;;;;;;;;;;;;;;;;;1029910;28;1666;-49
2022/08/12 03:38:10;;;;;;;;;;;;;;;;;;1029514;28;1721;-46
2022/08/12 03:38:42;;;;;;;;;;;;;;;;;;1028963;28;1646;-47
2022/08/12 03:39:46;;;;;;;;;;;;;;;;;;1029313;28;3209;-49
2022/08/12 03:42:16;;;;;;;;;;;;;;;;;;1030367;28;1700;-47
2022/08/12 04:00:47;;;;;;;;;;;;;;;;;;1030420;28;1585;-47
2022/08/12 04:01:18;;;;;;;;;;;;;;;;;;1029830;28;1674;-48
2022/08/12 04:01:56;;;;;;;;;;;;;;;;;;1029584;28;1899;-46
2022/08/12 04:02:27;;;;;;;;;;;;;;;;;;1029357;28;1762;-47
2022/08/12 04:03:04;;;;;;;;;;;;;;;;;;1030643;28;1576;-46
2022/08/12 04:03:53;;;;;;;;;;;;;;;;;;1030143;28;1674;-48
2022/08/12 04:04:44;;;;;;;;;;;;;;;;;;1029093;28;3017;-46
2022/08/12 04:05:19;;;;;;;;;;;;;;;;;;1029729;28;1632;-46
2022/08/12 04:05:50;;;;;;;;;;;;;;;;;;1030592;28;1893;-46
2022/08/12 04:06:21;;;;;;;;;;;;;;;;;;1030191;28;2144;-49
2022/08/12 04:06:52;;;;;;;;;;;;;;;;;;1030435;28;3037;-47
2022/08/12 04:07:28;;;;;;;;;;;;;;;;;;1029785;28;1368;-44
2022/08/12 04:07:59;;;;;;;;;;;;;;;;;;1030088;28;2223;-46
2022/08/12 04:08:29;;;;;;;;;;;;;;;;;;1030485;28;2546;-46
2022/08/12 04:09:00;;;;;;;;;;;;;;;;;;1030877;28;1944;-47
2022/08/12 04:09:30;;;;;;;;;;;;;;;;;;1029555;28;2331;-46
2022/08/12 04:10:01;;;;;;;;;;;;;;;;;;1030228;28;3353;-47
2022/08/12 04:13:18;;;;;;;;;;;;;;;;;;1031039;28;1544;-47
2022/08/12 04:13:49;;;;;;;;;;;;;;;;;;1030219;28;2116;-49
2022/08/12 04:14:19;;;;;;;;;;;;;;;;;;1030580;28;1649;-47
2022/08/12 04:14:50;;;;;;;;;;;;;;;;;;1030430;28;1860;-49
2022/08/12 04:15:24;;;;;;;;;;;;;;;;;;1030110;28;1441;-48
2022/08/12 04:15:55;;;;;;;;;;;;;;;;;;1029720;28;3214;-47
2022/08/12 04:16:25;;;;;;;;;;;;;;;;;;1030165;28;2138;-48
2022/08/12 04:16:56;;;;;;;;;;;;;;;;;;1030997;28;1838;-47
2022/08/12 04:17:26;;;;;;;;;;;;;;;;;;1029440;28;3448;-45
2022/08/12 04:17:58;;;;;;;;;;;;;;;;;;1029379;28;1842;-46
2022/08/12 04:18:30;;;;;;;;;;;;;;;;;;1030314;28;2004;-45
2022/08/12 04:19:01;;;;;;;;;;;;;;;;;;1028796;28;3581;-47
2022/08/12 04:19:31;;;;;;;;;;;;;;;;;;1030090;28;1988;-50
2022/08/12 04:20:02;;;;;;;;;;;;;;;;;;1034016;28;2014;-47
2022/08/12 04:20:32;;;;;;;;;;;;;;;;;;1034072;28;1716;-47
2022/08/12 04:21:03;;;;;;;;;;;;;;;;;;1033721;28;1946;-48
2022/08/12 04:21:35;;;;;;;;;;;;;;;;;;1034212;28;1811;-47
2022/08/12 04:22:05;;;;;;;;;;;;;;;;;;1030122;28;2154;-47
2022/08/12 04:22:37;;;;;;;;;;;;;;;;;;1029084;28;3873;-47
2022/08/12 04:23:13;;;;;;;;;;;;;;;;;;1029501;28;2124;-46
2022/08/12 04:23:44;;;;;;;;;;;;;;;;;;1032958;28;3198;-49
2022/08/12 04:24:15;;;;;;;;;;;;;;;;;;1034425;28;2184;-46
2022/08/12 04:24:45;;;;;;;;;;;;;;;;;;1034337;28;1650;-47
2022/08/12 04:25:15;;;;;;;;;;;;;;;;;;1031530;28;3731;-45
2022/08/12 04:25:46;;;;;;;;;;;;;;;;;;1029801;28;4388;-46
2022/08/12 04:26:16;;;;;;;;;;;;;;;;;;1029594;28;3032;-47
2022/08/12 04:26:46;;;;;;;;;;;;;;;;;;1030768;28;1691;-49
2022/08/12 04:27:16;;;;;;;;;;;;;;;;;;1029917;28;2099;-48
2022/08/12 04:27:48;;;;;;;;;;;;;;;;;;1029852;28;2362;-47
2022/08/12 04:28:26;;;;;;;;;;;;;;;;;;1029769;28;1671;-45
2022/08/12 04:28:57;;;;;;;;;;;;;;;;;;1029920;28;1984;-44
2022/08/12 04:29:28;;;;;;;;;;;;;;;;;;1028769;28;2581;-47
2022/08/12 04:29:59;;;;;;;;;;;;;;;;;;1029978;28;1992;-45
2022/08/12 04:30:29;;;;;;;;;;;;;;;;;;1029692;28;2019;-46
2022/08/12 04:31:00;;;;;;;;;;;;;;;;;;1029822;28;1575;-47
2022/08/12 04:31:34;;;;;;;;;;;;;;;;;;1031082;28;3743;-45
2022/08/12 04:32:05;;;;;;;;;;;;;;;;;;1032277;28;3187;-47
2022/08/12 04:32:35;;;;;;;;;;;;;;;;;;1032954;28;1961;-47
2022/08/12 04:33:08;;;;;;;;;;;;;;;;;;1034072;28;1315;-49
2022/08/12 04:33:40;;;;;;;;;;;;;;;;;;1033981;28;1326;-47
2022/08/12 04:34:17;;;;;;;;;;;;;;;;;;1032031;28;2309;-48
2022/08/12 04:34:55;;;;;;;;;;;;;;;;;;1032780;28;3770;-47
2022/08/12 04:35:31;;;;;;;;;;;;;;;;;;1030590;28;2473;-46
2022/08/12 04:36:01;;;;;;;;;;;;;;;;;;1030591;28;1607;-48
2022/08/12 04:36:33;;;;;;;;;;;;;;;;;;1029257;28;2945;-48
2022/08/12 04:37:03;;;;;;;;;;;;;;;;;;1033172;28;2754;-47
2022/08/12 04:37:33;;;;;;;;;;;;;;;;;;1033407;28;1856;-45
2022/08/12 04:38:05;;;;;;;;;;;;;;;;;;1033372;28;2272;-45
2022/08/12 04:38:35;;;;;;;;;;;;;;;;;;1033565;28;1681;-49
2022/08/12 04:39:06;;;;;;;;;;;;;;;;;;1029994;28;1786;-47
2022/08/12 04:39:38;;;;;;;;;;;;;;;;;;1028483;28;3317;-48
2022/08/12 04:40:11;;;;;;;;;;;;;;;;;;1029154;28;3290;-48
2022/08/12 04:40:45;;;;;;;;;;;;;;;;;;1026255;28;1808;-48
2022/08/12 04:41:17;;;;;;;;;;;;;;;;;;1026023;28;4280;-47
2022/08/12 04:41:50;;;;;;;;;;;;;;;;;;1030370;28;1744;-48
2022/08/12 04:42:21;;;;;;;;;;;;;;;;;;1029715;28;4399;-48
2022/08/12 04:42:51;;;;;;;;;;;;;;;;;;1030285;28;3305;-49
2022/08/12 04:43:22;;;;;;;;;;;;;;;;;;1029529;28;1629;-48
2022/08/12 04:43:52;;;;;;;;;;;;;;;;;;1030053;28;1703;-48
2022/08/12 04:44:23;;;;;;;;;;;;;;;;;;1030595;28;3630;-47
2022/08/12 04:44:53;;;;;;;;;;;;;;;;;;1029919;28;2246;-47
2022/08/12 04:45:23;;;;;;;;;;;;;;;;;;1029829;28;2956;-47
2022/08/12 04:45:54;;;;;;;;;;;;;;;;;;1029248;28;2623;-47
2022/08/12 04:46:25;;;;;;;;;;;;;;;;;;1030023;28;1620;-47
2022/08/12 04:46:55;;;;;;;;;;;;;;;;;;1029081;28;1610;-47
2022/08/12 04:47:25;;;;;;;;;;;;;;;;;;1030157;28;2166;-46
2022/08/12 04:47:56;;;;;;;;;;;;;;;;;;1028707;28;2226;-45
2022/08/12 04:48:26;;;;;;;;;;;;;;;;;;1030320;28;1688;-46
2022/08/12 04:48:56;;;;;;;;;;;;;;;;;;1029631;28;1810;-45
2022/08/12 04:49:27;;;;;;;;;;;;;;;;;;1029884;28;1649;-48
2022/08/12 04:49:57;;;;;;;;;;;;;;;;;;1028708;28;2339;-45
2022/08/12 04:50:28;;;;;;;;;;;;;;;;;;1032836;28;3029;-48
2022/08/12 04:50:58;;;;;;;;;;;;;;;;;;1032916;28;3939;-47
2022/08/12 04:51:29;;;;;;;;;;;;;;;;;;1032294;28;3290;-47
2022/08/12 04:51:59;;;;;;;;;;;;;;;;;;1032103;28;3028;-48
2022/08/12 04:52:29;;;;;;;;;;;;;;;;;;1028970;28;2886;-47
2022/08/12 04:53:00;;;;;;;;;;;;;;;;;;1028221;28;3702;-45
2022/08/12 04:53:30;;;;;;;;;;;;;;;;;;1028112;28;4537;-46
2022/08/12 04:54:08;;;;;;;;;;;;;;;;;;1032562;28;4483;-46
2022/08/12 04:54:38;;;;;;;;;;;;;;;;;;1032808;28;3875;-47
2022/08/12 04:55:11;;;;;;;;;;;;;;;;;;1031866;28;4402;-46
2022/08/12 04:55:44;;;;;;;;;;;;;;;;;;1031570;28;3507;-49
2022/08/12 04:56:15;;;;;;;;;;;;;;;;;;1029151;28;3805;-45
2022/08/12 04:56:45;;;;;;;;;;;;;;;;;;1029001;28;4049;-47
2022/08/12 04:57:15;;;;;;;;;;;;;;;;;;1029969;28;1946;-46
2022/08/12 04:57:45;;;;;;;;;;;;;;;;;;1029257;28;1956;-46
2022/08/12 04:58:16;;;;;;;;;;;;;;;;;;1030042;28;1796;-48
2022/08/12 04:58:46;;;;;;;;;;;;;;;;;;1028591;28;2405;-49
2022/08/12 04:59:17;;;;;;;;;;;;;;;;;;1032244;28;3728;-49
2022/08/12 04:59:48;;;;;;;;;;;;;;;;;;1033167;28;1833;-47
2022/08/12 05:00:18;;;;;;;;;;;;;;;;;;1033421;28;1835;-48
2022/08/12 05:00:48;;;;;;;;;;;;;;;;;;1033275;28;1666;-47
2022/08/12 05:01:19;;;;;;;;;;;;;;;;;;1030588;28;3665;-47
2022/08/12 05:01:51;;;;;;;;;;;;;;;;;;1031241;28;3866;-48
2022/08/12 05:02:21;;;;;;;;;;;;;;;;;;1028319;28;3867;-49
2022/08/12 05:02:51;;;;;;;;;;;;;;;;;;1030006;28;1964;-50
2022/08/12 05:03:23;;;;;;;;;;;;;;;;;;1028953;28;2377;-46
2022/08/12 05:03:55;;;;;;;;;;;;;;;;;;1033205;28;2039;-50
2022/08/12 05:04:25;;;;;;;;;;;;;;;;;;1033834;28;1955;-48
2022/08/12 05:04:56;;;;;;;;;;;;;;;;;;1032555;28;1983;-47
2022/08/12 05:05:26;;;;;;;;;;;;;;;;;;1032990;28;2395;-46
2022/08/12 05:05:57;;;;;;;;;;;;;;;;;;1029341;28;1702;-48
2022/08/12 05:06:27;;;;;;;;;;;;;;;;;;1028309;28;3583;-51
2022/08/12 05:06:57;;;;;;;;;;;;;;;;;;1029091;28;2448;-48
2022/08/12 05:07:28;;;;;;;;;;;;;;;;;;1028999;28;3191;-46
2022/08/12 05:07:58;;;;;;;;;;;;;;;;;;1029326;28;3634;-46
2022/08/12 05:08:29;;;;;;;;;;;;;;;;;;1029722;28;2037;-45
2022/08/12 05:09:00;;;;;;;;;;;;;;;;;;1033040;28;1747;-47
2022/08/12 05:09:30;;;;;;;;;;;;;;;;;;1033424;28;2120;-46
2022/08/12 05:10:01;;;;;;;;;;;;;;;;;;1033143;28;1927;-45
2022/08/12 05:10:32;;;;;;;;;;;;;;;;;;1033378;28;1433;-49
2022/08/12 05:11:03;;;;;;;;;;;;;;;;;;1029767;28;1635;-51
2022/08/12 05:11:33;;;;;;;;;;;;;;;;;;1029662;28;1803;-46
2022/08/12 05:12:04;;;;;;;;;;;;;;;;;;1028737;28;2314;-47
2022/08/12 05:12:43;;;;;;;;;;;;;;;;;;1029369;28;1774;-45
2022/08/12 05:13:43;;;;;;;;;;;;;;;;;;1028646;28;1820;-45
2022/08/12 05:14:13;;;;;;;;;;;;;;;;;;1024524;28;2609;-51
2022/08/12 05:14:43;;;;;;;;;;;;;;;;;;1029884;28;1199;-48
2022/08/12 05:15:13;;;;;;;;;;;;;;;;;;1028586;28;1539;-46
2022/08/12 05:15:44;;;;;;;;;;;;;;;;;;1029004;28;1436;-46